• Join FlightAware (Why Join?)
  • Login
  • US Flag 
Rudolph Flight #1: Arrived! 
09:00PM EST


 

Airport Tracker/Info


-or-


 

Live Flight TrackerFlight Track Log ✈ JBU1329 ✈ 2013年 05月 09日 ✈ KBOS - KBWI

Flight Track Log - Related Links

Times and Time Zones

All times are in EDT time to prevent confusion due to time zone crossing. See the JBU1329 flight status page for this flight to view local times or setup timezone preferences in your user account.

Time Position Orientation Groundspeed Altitude Reporting Facility
EDT Latitude Longitude Course Direction KTS MPH feet Rate Location/Type
09:19AM 42.3667 -70.9833 262° West 159 183 1,100  Level KA90
09:20AM 42.3667 -70.9333 90° East 196 226 2,300 2,220 Climbing KA90
09:21AM 42.3906 -70.8011 76° East 257 296 6,400 3,120 Climbing Boston Center
09:22AM 42.2893 -70.7328 228° Southwest  Level FlightAware Approximate
09:22AM 42.3500 -70.7264 126° Southeast 249 287 10,400  Level Boston Center
09:23AM 42.2261 -70.8335 240° Southwest  Level FlightAware Approximate
09:23AM 42.2731 -70.7397 187° South 197 227 12,000  Level Boston Center
09:24AM 42.1833 -70.9502 270° West  Level FlightAware Approximate
09:24AM 42.2289 -70.8586 243° Southwest 239 275 15,200  Level Boston Center
09:25AM 42.1719 -71.0813 262° West  Level FlightAware Approximate
09:25AM 42.2117 -70.9742 259° West 306 352 17,400  Level Boston Center
09:26AM 42.1967 -71.1144 262° West 363 418 19,600 2,160 Climbing Boston Center
09:27AM 42.1753 -71.2550 258° West 382 440 21,800 2,100 Climbing Boston Center
09:28AM 42.1475 -71.3983 255° West 394 453 23,900 1,920 Climbing Boston Center
09:29AM 42.1008 -71.5308 245° Southwest 394 453 25,700 1,860 Climbing Boston Center
09:30AM 42.0414 -71.6742 241° Southwest 408 470 27,700 1,200 Climbing Boston Center
09:31AM 41.9881 -71.8117 242° Southwest 414 476 28,100 900 Climbing Boston Center
09:32AM 41.9386 -71.9378 242° Southwest 423 487 29,500 900 Climbing Boston Center
09:33AM 41.8808 -72.0861 242° Southwest 423 487 30,000 240 Climbing Boston Center
09:34AM 41.8375 -72.1978 243° Southwest 418 481 30,000  Level Boston Center
09:35AM 41.7731 -72.3594 242° Southwest 413 475 30,000  Level Boston Center
09:36AM 41.7253 -72.4819 242° Southwest 413 475 30,000  Level Boston Center
09:37AM 41.6667 -72.6319 242° Southwest 413 475 30,000  Level Boston Center
09:39AM 41.6081 -72.7789 242° Southwest 413 475 30,000  Level Boston Center
09:40AM 41.5492 -72.9283 242° Southwest 413 475 30,000  Level Boston Center
09:41AM 41.4942 -73.0608 241° Southwest 413 475 30,000  Level Boston Center
09:42AM 41.4392 -73.1961 242° Southwest 413 475 30,000  Level Boston Center
09:44AM 41.3219 -73.4922 242° Southwest 423 487 30,000  Level New York Center
09:45AM 41.2606 -73.6222 238° Southwest 423 487 30,000  Level New York Center
09:46AM 41.1844 -73.7458 231° Southwest 428 493 30,000  Level New York Center
09:47AM 41.1128 -73.8667 232° Southwest 428 493 30,000  Level New York Center
09:48AM 41.0386 -73.9897 231° Southwest 428 493 30,000  Level New York Center
09:49AM 40.9642 -74.1153 232° Southwest 433 498 30,000 -660 Level New York Center
09:50AM 40.8856 -74.2403 230° Southwest 425 489 28,700 -1,380 Descending New York Center
09:51AM 40.8156 -74.3575 232° Southwest 414 476 27,300 -1,380 Descending New York Center
09:52AM 40.7475 -74.4689 231° Southwest 408 470 26,000 -660 Descending New York Center
09:53AM 40.6814 -74.5831 233° Southwest 408 470 26,000  Level New York Center
09:54AM 40.6089 -74.6964 230° Southwest 403 464 26,000 -300 Level New York Center
09:55AM 40.5342 -74.8097 229° Southwest 408 470 25,400 -1,140 Descending New York Center
09:56AM 40.4597 -74.9172 228° Southwest 408 470 23,800 -1,620 Descending New York Center
09:57AM 40.3892 -75.0219 229° Southwest 408 470 22,200 -1,560 Descending New York Center
09:58AM 40.3147 -75.1233 226° Southwest 398 458 20,700 -1,560 Descending New York Center
09:59AM 40.2442 -75.2222 227° Southwest 393 452 19,100 -1,380 Descending New York Center
10:00AM 40.1761 -75.3158 226° Southwest 387 445 18,000 -600 Descending New York Center
10:01AM 40.0969 -75.4219 226° Southwest 387 445 18,000  Level New York Center
10:02AM 40.0328 -75.5125 227° Southwest 382 440 18,000 -180 Level New York Center
10:03AM 39.9533 -75.6236 227° Southwest 382 440 17,700 -720 Descending New York Center
10:04AM 39.8883 -75.7272 231° Southwest 382 440 16,600 -1,020 Descending New York Center
10:05AM 39.8317 -75.8342 235° Southwest 376 433 15,700 -1,620 Descending New York Center
10:06AM 39.7792 -75.9383 237° Southwest 355 409 13,500 -1,140 Descending New York Center
10:08AM 39.6892 -76.0883 237° Southwest  Level FlightAware Approximate
10:10AM 39.6000 -76.2833 180° South 279 321 10,200  Level Potomac TRACON
10:12AM 39.4667 -76.4000 214° Southwest 272 313 6,900 -1,560 Descending Potomac TRACON
10:14AM 39.3333 -76.4167 186° South 270 311 4,000 -1,320 Descending Potomac TRACON
10:15AM 39.2300 -76.6000 180° South  Level FlightAware Approximate
10:15AM 39.2500 -76.4333 189° South 258 297 3,000  Level Potomac TRACON
10:16AM 39.1833 -76.4667 201° Southwest 256 295 2,800 -300 Descending Potomac TRACON
10:17AM 39.1333 -76.4833 194° South 221 254 2,400 -480 Descending Potomac TRACON
10:18AM 39.0667 -76.5000 191° South 216 249 2,000 -240 Descending Potomac TRACON
10:19AM 39.0667 -76.5500 270° West 200 230 2,000  Level Potomac TRACON